< < Back
Terminal Aerodrome Forecast


Current Version              Previous Versions:   1  2  3  4  5  6  7  8  9  

Terminal Aerodrome Forecast

975
FTUS42 KMLB 270328 AAB
TAFMCO
TAF AMD
KMCO 270328Z 2703/2724 VRB03KT P6SM FEW030 SCT120 BKN250
     FM271400 23004KT P6SM SCT025
     FM271700 25004KT P6SM SCT040 BKN200
     FM271900 VRB04KT P6SM VCTS SCT040CB BKN100=



Latest METAR

791
SAUS70 KWBC 271000 RRI
MTRMCO
METAR KMCO 270953Z 00000KT 9SM FEW200 SCT250 22/21 A2991 RMK AO2 SLP127
T02170211


USA.gov is the U.S. government's official web portal to all federal, state and local government web resources and services.